Terminal Aerodrome Forecast
Issued by NWS

Home | Current Version | Previous Version | Graphics & Text | Print | Product List | Glossary On
Versions: 1 2 3 4 5 6 7 8 9 10 11 12 13 14 15 16 17 18 19 20 21 22 23 24
000
FTUS43 KICT 220732 AAA
TAFSLN
TAF AMD
KSLN 220732Z 2208/2306 17014KT 3SM -DZ BR OVC005
      TEMPO 2208/2212 1 1/2SM -RA BR OVC003
     FM221500 25015KT 6SM BR VCSH BKN012
     FM221800 31019G27KT P6SM BKN020
     FM230000 30008KT P6SM SCT100=

USA.gov is the U.S. government's official web portal to all federal, state and local government web resources and services.